sensor_id;sensor_type;location;lat;lon;timestamp;temperature;humidity
18266;DHT22;9259;48.194;16.322;2024-03-06T00:01:05;8.20;99.90
18266;DHT22;9259;48.194;16.322;2024-03-06T00:06:01;7.90;99.90
18266;DHT22;9259;48.194;16.322;2024-03-06T00:38:08;7.70;99.90
18266;DHT22;9259;48.194;16.322;2024-03-06T00:43:04;7.60;99.90
18266;DHT22;9259;48.194;16.322;2024-03-06T00:52:58;7.60;99.90
18266;DHT22;9259;48.194;16.322;2024-03-06T01:00:22;7.50;99.90
18266;DHT22;9259;48.194;16.322;2024-03-06T01:10:15;7.40;99.90
18266;DHT22;9259;48.194;16.322;2024-03-06T01:12:43;7.50;99.90
18266;DHT22;9259;48.194;16.322;2024-03-06T01:15:12;7.50;99.90
18266;DHT22;9259;48.194;16.322;2024-03-06T01:17:39;7.50;99.90
18266;DHT22;9259;48.194;16.322;2024-03-06T01:20:08;7.50;99.90
18266;DHT22;9259;48.194;16.322;2024-03-06T01:25:05;7.50;99.90
18266;DHT22;9259;48.194;16.322;2024-03-06T01:27:34;7.50;99.90
18266;DHT22;9259;48.194;16.322;2024-03-06T01:30:03;7.40;99.90
18266;DHT22;9259;48.194;16.322;2024-03-06T01:54:48;7.50;99.90
18266;DHT22;9259;48.194;16.322;2024-03-06T02:04:43;7.20;99.90
18266;DHT22;9259;48.194;16.322;2024-03-06T02:14:35;7.20;99.90
18266;DHT22;9259;48.194;16.322;2024-03-06T02:22:11;7.10;99.90
18266;DHT22;9259;48.194;16.322;2024-03-06T02:32:12;7.10;99.90
18266;DHT22;9259;48.194;16.322;2024-03-06T02:34:41;7.10;99.90
18266;DHT22;9259;48.194;16.322;2024-03-06T02:37:08;7.20;99.90
18266;DHT22;9259;48.194;16.322;2024-03-06T02:39:38;7.20;99.90
18266;DHT22;9259;48.194;16.322;2024-03-06T02:42:05;7.20;99.90
18266;DHT22;9259;48.194;16.322;2024-03-06T02:44:33;7.30;99.90
18266;DHT22;9259;48.194;16.322;2024-03-06T02:47:01;7.30;99.90
18266;DHT22;9259;48.194;16.322;2024-03-06T02:49:29;7.30;99.90
18266;DHT22;9259;48.194;16.322;2024-03-06T02:51:57;7.30;99.90
18266;DHT22;9259;48.194;16.322;2024-03-06T02:54:28;7.30;99.90
18266;DHT22;9259;48.194;16.322;2024-03-06T02:56:56;7.30;99.90
18266;DHT22;9259;48.194;16.322;2024-03-06T02:59:24;7.30;99.90
18266;DHT22;9259;48.194;16.322;2024-03-06T03:01:52;7.20;99.90
18266;DHT22;9259;48.194;16.322;2024-03-06T03:04:20;7.20;99.90
18266;DHT22;9259;48.194;16.322;2024-03-06T03:06:48;7.20;99.90
18266;DHT22;9259;48.194;16.322;2024-03-06T03:09:17;7.10;99.90
18266;DHT22;9259;48.194;16.322;2024-03-06T03:11:46;7.10;99.90
18266;DHT22;9259;48.194;16.322;2024-03-06T03:14:14;7.00;99.90
18266;DHT22;9259;48.194;16.322;2024-03-06T03:16:42;7.00;99.90
18266;DHT22;9259;48.194;16.322;2024-03-06T03:19:11;7.10;99.90
18266;DHT22;9259;48.194;16.322;2024-03-06T03:21:42;7.10;99.90
18266;DHT22;9259;48.194;16.322;2024-03-06T03:24:10;7.10;99.90
18266;DHT22;9259;48.194;16.322;2024-03-06T03:26:38;7.00;99.90
18266;DHT22;9259;48.194;16.322;2024-03-06T03:29:09;7.00;99.90
18266;DHT22;9259;48.194;16.322;2024-03-06T03:31:37;6.90;99.90
18266;DHT22;9259;48.194;16.322;2024-03-06T03:34:05;6.80;99.90
18266;DHT22;9259;48.194;16.322;2024-03-06T03:36:33;6.70;99.90
18266;DHT22;9259;48.194;16.322;2024-03-06T03:39:01;6.60;99.90
18266;DHT22;9259;48.194;16.322;2024-03-06T03:41:29;6.60;99.90
18266;DHT22;9259;48.194;16.322;2024-03-06T03:43:57;6.60;99.90
18266;DHT22;9259;48.194;16.322;2024-03-06T03:46:26;6.60;99.90
18266;DHT22;9259;48.194;16.322;2024-03-06T03:48:54;6.40;99.90
18266;DHT22;9259;48.194;16.322;2024-03-06T03:51:22;6.40;99.90
18266;DHT22;9259;48.194;16.322;2024-03-06T03:53:50;6.40;99.90
18266;DHT22;9259;48.194;16.322;2024-03-06T03:56:19;6.40;99.90
18266;DHT22;9259;48.194;16.322;2024-03-06T03:58:47;6.40;99.90
18266;DHT22;9259;48.194;16.322;2024-03-06T04:01:15;6.40;99.90
18266;DHT22;9259;48.194;16.322;2024-03-06T04:03:44;6.30;99.90
18266;DHT22;9259;48.194;16.322;2024-03-06T04:06:12;6.30;99.90
18266;DHT22;9259;48.194;16.322;2024-03-06T04:08:40;6.30;99.90
18266;DHT22;9259;48.194;16.322;2024-03-06T04:11:08;6.20;99.90
18266;DHT22;9259;48.194;16.322;2024-03-06T04:13:37;6.20;99.90
18266;DHT22;9259;48.194;16.322;2024-03-06T04:26:01;6.20;99.90
18266;DHT22;9259;48.194;16.322;2024-03-06T04:28:30;6.00;99.90
18266;DHT22;9259;48.194;16.322;2024-03-06T04:30:58;6.00;99.90
18266;DHT22;9259;48.194;16.322;2024-03-06T04:33:26;6.00;99.90
18266;DHT22;9259;48.194;16.322;2024-03-06T04:35:53;6.00;99.90
18266;DHT22;9259;48.194;16.322;2024-03-06T04:38:22;6.00;99.90
18266;DHT22;9259;48.194;16.322;2024-03-06T04:40:50;6.00;99.90
18266;DHT22;9259;48.194;16.322;2024-03-06T04:43:18;5.90;99.90
18266;DHT22;9259;48.194;16.322;2024-03-06T04:45:46;5.90;99.90
18266;DHT22;9259;48.194;16.322;2024-03-06T04:48:14;5.80;99.90
18266;DHT22;9259;48.194;16.322;2024-03-06T04:50:42;5.80;99.90
18266;DHT22;9259;48.194;16.322;2024-03-06T04:53:11;5.70;99.90
18266;DHT22;9259;48.194;16.322;2024-03-06T04:55:40;5.80;99.90
18266;DHT22;9259;48.194;16.322;2024-03-06T04:58:08;5.80;99.90
18266;DHT22;9259;48.194;16.322;2024-03-06T05:00:36;5.80;99.90
18266;DHT22;9259;48.194;16.322;2024-03-06T05:03:04;5.80;99.90
18266;DHT22;9259;48.194;16.322;2024-03-06T05:05:32;5.70;99.90
18266;DHT22;9259;48.194;16.322;2024-03-06T05:08:00;5.80;99.90
18266;DHT22;9259;48.194;16.322;2024-03-06T05:10:28;5.80;99.90
18266;DHT22;9259;48.194;16.322;2024-03-06T05:12:57;5.80;99.90
18266;DHT22;9259;48.194;16.322;2024-03-06T05:15:25;5.80;99.90
18266;DHT22;9259;48.194;16.322;2024-03-06T05:17:53;5.80;99.90
18266;DHT22;9259;48.194;16.322;2024-03-06T05:20:22;5.80;99.90
18266;DHT22;9259;48.194;16.322;2024-03-06T05:22:50;5.80;99.90
18266;DHT22;9259;48.194;16.322;2024-03-06T05:25:17;5.80;99.90
18266;DHT22;9259;48.194;16.322;2024-03-06T05:27:45;5.80;99.90
18266;DHT22;9259;48.194;16.322;2024-03-06T05:30:14;5.80;99.90
18266;DHT22;9259;48.194;16.322;2024-03-06T05:32:42;5.80;99.90
18266;DHT22;9259;48.194;16.322;2024-03-06T05:35:10;5.90;99.90
18266;DHT22;9259;48.194;16.322;2024-03-06T05:37:38;5.80;99.90
18266;DHT22;9259;48.194;16.322;2024-03-06T05:40:07;5.90;99.90
18266;DHT22;9259;48.194;16.322;2024-03-06T05:42:36;5.90;99.90
18266;DHT22;9259;48.194;16.322;2024-03-06T05:45:05;5.90;99.90
18266;DHT22;9259;48.194;16.322;2024-03-06T05:47:38;5.90;99.90
18266;DHT22;9259;48.194;16.322;2024-03-06T05:50:07;5.90;99.90
18266;DHT22;9259;48.194;16.322;2024-03-06T05:52:37;6.00;99.90
18266;DHT22;9259;48.194;16.322;2024-03-06T05:55:05;6.00;99.90
18266;DHT22;9259;48.194;16.322;2024-03-06T05:57:34;6.00;99.90
18266;DHT22;9259;48.194;16.322;2024-03-06T06:00:02;6.00;99.90
18266;DHT22;9259;48.194;16.322;2024-03-06T06:02:38;6.20;99.90
18266;DHT22;9259;48.194;16.322;2024-03-06T06:05:07;6.20;99.90
18266;DHT22;9259;48.194;16.322;2024-03-06T06:07:35;6.20;99.90
18266;DHT22;9259;48.194;16.322;2024-03-06T06:10:04;6.30;99.90
18266;DHT22;9259;48.194;16.322;2024-03-06T06:12:36;6.40;99.90
18266;DHT22;9259;48.194;16.322;2024-03-06T06:15:05;6.50;99.90
18266;DHT22;9259;48.194;16.322;2024-03-06T06:17:34;6.60;99.90
18266;DHT22;9259;48.194;16.322;2024-03-06T06:20:06;6.60;99.90
18266;DHT22;9259;48.194;16.322;2024-03-06T06:22:35;6.60;99.90
18266;DHT22;9259;48.194;16.322;2024-03-06T06:25:04;6.70;99.90
18266;DHT22;9259;48.194;16.322;2024-03-06T06:27:33;6.70;99.90
18266;DHT22;9259;48.194;16.322;2024-03-06T06:30:01;6.90;99.90
18266;DHT22;9259;48.194;16.322;2024-03-06T06:32:30;7.00;99.90
18266;DHT22;9259;48.194;16.322;2024-03-06T06:34:57;7.10;99.90
18266;DHT22;9259;48.194;16.322;2024-03-06T06:37:27;7.20;99.90
18266;DHT22;9259;48.194;16.322;2024-03-06T06:39:54;7.30;99.90
18266;DHT22;9259;48.194;16.322;2024-03-06T06:42:22;7.40;99.90
18266;DHT22;9259;48.194;16.322;2024-03-06T06:44:51;7.30;99.90
18266;DHT22;9259;48.194;16.322;2024-03-06T06:47:19;7.20;99.90
18266;DHT22;9259;48.194;16.322;2024-03-06T06:49:47;7.40;99.90
18266;DHT22;9259;48.194;16.322;2024-03-06T06:52:15;7.40;99.90
18266;DHT22;9259;48.194;16.322;2024-03-06T06:54:44;7.50;99.90
18266;DHT22;9259;48.194;16.322;2024-03-06T06:57:12;7.80;99.90
18266;DHT22;9259;48.194;16.322;2024-03-06T06:59:40;7.90;99.90
18266;DHT22;9259;48.194;16.322;2024-03-06T07:02:07;8.00;99.90
18266;DHT22;9259;48.194;16.322;2024-03-06T07:04:35;8.10;99.90
18266;DHT22;9259;48.194;16.322;2024-03-06T07:07:03;8.00;99.90
18266;DHT22;9259;48.194;16.322;2024-03-06T07:09:31;7.80;99.90
18266;DHT22;9259;48.194;16.322;2024-03-06T07:12:01;8.00;99.90
18266;DHT22;9259;48.194;16.322;2024-03-06T07:14:30;8.10;99.90
18266;DHT22;9259;48.194;16.322;2024-03-06T07:16:58;8.30;99.90
18266;DHT22;9259;48.194;16.322;2024-03-06T07:19:25;8.30;99.90
18266;DHT22;9259;48.194;16.322;2024-03-06T07:21:53;8.50;99.90
18266;DHT22;9259;48.194;16.322;2024-03-06T07:24:21;8.80;99.90
18266;DHT22;9259;48.194;16.322;2024-03-06T07:26:49;9.60;99.90
18266;DHT22;9259;48.194;16.322;2024-03-06T07:29:18;10.70;99.90
18266;DHT22;9259;48.194;16.322;2024-03-06T07:31:46;11.50;99.90
18266;DHT22;9259;48.194;16.322;2024-03-06T07:36:43;12.50;99.90
18266;DHT22;9259;48.194;16.322;2024-03-06T07:39:12;12.00;99.90
18266;DHT22;9259;48.194;16.322;2024-03-06T07:41:40;13.30;99.90
18266;DHT22;9259;48.194;16.322;2024-03-06T07:44:08;14.20;99.90
18266;DHT22;9259;48.194;16.322;2024-03-06T07:54:03;15.30;99.90
18266;DHT22;9259;48.194;16.322;2024-03-06T08:08:55;13.60;99.90
18266;DHT22;9259;48.194;16.322;2024-03-06T08:13:57;16.10;98.90
18266;DHT22;9259;48.194;16.322;2024-03-06T08:16:25;17.00;97.10
18266;DHT22;9259;48.194;16.322;2024-03-06T08:18:53;16.60;96.20
18266;DHT22;9259;48.194;16.322;2024-03-06T08:21:22;16.70;96.70
18266;DHT22;9259;48.194;16.322;2024-03-06T08:23:50;16.40;95.70
18266;DHT22;9259;48.194;16.322;2024-03-06T08:53:36;16.10;96.10
18266;DHT22;9259;48.194;16.322;2024-03-06T09:33:13;16.80;91.40
18266;DHT22;9259;48.194;16.322;2024-03-06T10:38:08;15.40;93.20
18266;DHT22;9259;48.194;16.322;2024-03-06T10:43:08;16.30;91.10
18266;DHT22;9259;48.194;16.322;2024-03-06T11:36:58;16.50;91.10
18266;DHT22;9259;48.194;16.322;2024-03-06T11:39:32;18.40;85.40
18266;DHT22;9259;48.194;16.322;2024-03-06T18:16:33;17.10;86.30
18266;DHT22;9259;48.194;16.322;2024-03-06T18:19:03;9.00;99.90
18266;DHT22;9259;48.194;16.322;2024-03-06T18:21:31;8.90;99.90
18266;DHT22;9259;48.194;16.322;2024-03-06T18:23:59;8.80;99.90
18266;DHT22;9259;48.194;16.322;2024-03-06T18:26:28;8.80;99.90
18266;DHT22;9259;48.194;16.322;2024-03-06T18:28:57;8.70;99.90
18266;DHT22;9259;48.194;16.322;2024-03-06T18:31:26;8.70;99.90
18266;DHT22;9259;48.194;16.322;2024-03-06T18:33:54;8.70;99.90
18266;DHT22;9259;48.194;16.322;2024-03-06T18:36:22;8.70;99.90
18266;DHT22;9259;48.194;16.322;2024-03-06T18:38:50;8.70;99.90
18266;DHT22;9259;48.194;16.322;2024-03-06T18:41:18;8.60;99.90
18266;DHT22;9259;48.194;16.322;2024-03-06T18:43:45;8.50;99.90
18266;DHT22;9259;48.194;16.322;2024-03-06T18:46:15;8.50;99.90
18266;DHT22;9259;48.194;16.322;2024-03-06T18:48:43;8.40;99.90
18266;DHT22;9259;48.194;16.322;2024-03-06T18:51:10;8.30;99.90
18266;DHT22;9259;48.194;16.322;2024-03-06T18:53:38;8.30;99.90
18266;DHT22;9259;48.194;16.322;2024-03-06T19:20:56;8.20;99.90
18266;DHT22;9259;48.194;16.322;2024-03-06T19:30:49;8.00;99.90
18266;DHT22;9259;48.194;16.322;2024-03-06T19:58:02;8.10;99.90
18266;DHT22;9259;48.194;16.322;2024-03-06T20:10:26;8.00;99.90
18266;DHT22;9259;48.194;16.322;2024-03-06T20:17:57;7.90;99.90
18266;DHT22;9259;48.194;16.322;2024-03-06T20:20:25;7.80;99.90
18266;DHT22;9259;48.194;16.322;2024-03-06T20:22:52;7.80;99.90
18266;DHT22;9259;48.194;16.322;2024-03-06T20:25:26;7.80;99.90
18266;DHT22;9259;48.194;16.322;2024-03-06T20:27:53;7.80;99.90
18266;DHT22;9259;48.194;16.322;2024-03-06T20:30:23;7.70;99.90
18266;DHT22;9259;48.194;16.322;2024-03-06T20:32:51;7.80;99.90
18266;DHT22;9259;48.194;16.322;2024-03-06T20:35:19;7.70;99.90
18266;DHT22;9259;48.194;16.322;2024-03-06T20:37:49;7.70;99.90
18266;DHT22;9259;48.194;16.322;2024-03-06T20:40:17;7.60;99.90
18266;DHT22;9259;48.194;16.322;2024-03-06T20:42:45;7.50;99.90
18266;DHT22;9259;48.194;16.322;2024-03-06T20:45:13;7.50;99.90
18266;DHT22;9259;48.194;16.322;2024-03-06T20:47:42;7.60;99.90
18266;DHT22;9259;48.194;16.322;2024-03-06T20:57:36;7.60;99.90
18266;DHT22;9259;48.194;16.322;2024-03-06T21:57:20;7.50;99.90
18266;DHT22;9259;48.194;16.322;2024-03-06T21:59:48;7.30;99.90
18266;DHT22;9259;48.194;16.322;2024-03-06T22:02:15;7.30;99.90
18266;DHT22;9259;48.194;16.322;2024-03-06T22:04:43;7.30;99.90
18266;DHT22;9259;48.194;16.322;2024-03-06T22:17:10;7.20;99.90
18266;DHT22;9259;48.194;16.322;2024-03-06T22:19:38;7.10;99.90
18266;DHT22;9259;48.194;16.322;2024-03-06T22:51:46;7.20;99.90
